Alexander, North Dakota
Current Conditions -  °F | °C
As of 1:52 PM on Wednesday 26 Nov 2014 (Local Time) from KISN Reporting Station
Broken Clouds Broken Clouds  
Wind Chill: -18°   Ceiling: 6500
Heat Index: -12°   Visibility: 10mi
Dew Point: -16°   Wind: 7mph
Humidity: 70%   Direction: 20°NNE
Pressure: 30.36"   Gusts: NA
Location:  47.84°N, 103.64°W
Report Text: KISN 261952Z AUTO 02006KT 10SM FEW031 BKN065 M12/M16 A3036 RMK AO2 SLP325 T11171161
Loading
Personal Weather Stations






























Interactive Weather Map New forecast layout! Learn more

10-Day Weather Forecast

Advertisements
Track Severe Weather on mobile